createdAt,value
2022-09-21T00:01:57.162Z,66.02
2022-09-21T00:07:00.652Z,65.89
2022-09-21T00:12:05.775Z,65.95
2022-09-21T00:17:09.899Z,65.63
2022-09-21T00:22:13.384Z,65.97
2022-09-21T00:27:18.492Z,66.02
2022-09-21T00:32:21.853Z,66.18
2022-09-21T00:37:26.119Z,65.96
2022-09-21T00:42:33.804Z,65.81
2022-09-21T00:47:40.198Z,66.11
2022-09-21T00:52:47.183Z,66.80
2022-09-21T00:57:55.989Z,67.14
2022-09-21T01:03:01.582Z,66.04
2022-09-21T01:08:09.098Z,65.60
2022-09-21T01:13:23.656Z,64.84
2022-09-21T01:18:34.147Z,65.19
2022-09-21T01:24:10.282Z,65.05
2022-09-21T01:29:22.057Z,65.39
2022-09-21T01:34:32.140Z,65.55
2022-09-21T01:39:38.819Z,65.02
2022-09-21T01:44:46.061Z,66.55
2022-09-21T01:49:55.856Z,67.18
2022-09-21T01:55:02.729Z,68.47
2022-09-21T02:00:09.152Z,68.79
2022-09-21T02:05:17.991Z,68.52
2022-09-21T02:10:28.690Z,68.26
2022-09-21T02:15:46.117Z,68.40
2022-09-21T02:20:54.595Z,68.02
2022-09-21T02:26:07.926Z,67.49
2022-09-21T02:31:23.235Z,67.91
2022-09-21T02:36:32.737Z,68.28
2022-09-21T02:41:42.593Z,68.39
2022-09-21T02:46:53.720Z,68.21
2022-09-21T02:52:01.713Z,68.49
2022-09-21T02:57:07.114Z,68.75
2022-09-21T03:02:41.769Z,68.07
2022-09-21T03:07:45.120Z,68.36
2022-09-21T03:12:48.536Z,69.16
2022-09-21T03:17:53.469Z,68.89
2022-09-21T03:22:56.864Z,68.58
2022-09-21T03:28:01.376Z,68.41
2022-09-21T03:33:07.208Z,68.54
2022-09-21T03:38:11.192Z,69.03
2022-09-21T03:43:15.230Z,69.29
2022-09-21T03:48:21.743Z,68.85
2022-09-21T03:53:25.417Z,68.63
2022-09-21T03:58:28.815Z,67.86
2022-09-21T04:03:34.645Z,67.46
2022-09-21T04:08:38.335Z,67.69
2022-09-21T04:13:42.671Z,68.29
2022-09-21T04:18:50.410Z,67.95
2022-09-21T04:23:54.185Z,67.85
2022-09-21T04:28:58.769Z,68.67
2022-09-21T04:34:03.666Z,68.94
2022-09-21T04:39:08.043Z,68.79
2022-09-21T04:44:11.934Z,69.11
2022-09-21T04:49:16.711Z,69.41
2022-09-21T04:54:20.649Z,69.24
2022-09-21T04:59:24.452Z,69.89
2022-09-21T05:04:29.861Z,70.07
2022-09-21T05:09:50.633Z,69.43
2022-09-21T05:14:56.052Z,69.46
2022-09-21T05:20:00.893Z,68.54
2022-09-21T05:25:05.066Z,68.09
2022-09-21T05:30:10.949Z,67.16
2022-09-21T05:35:26.096Z,66.66
2022-09-21T05:40:30.254Z,66.42
2022-09-21T05:45:34.502Z,65.20
2022-09-21T05:50:54.174Z,64.09
2022-09-21T05:56:00.890Z,64.34
2022-09-21T06:01:21.424Z,63.16
2022-09-21T06:06:26.510Z,62.58
2022-09-21T06:11:30.248Z,62.16
2022-09-21T06:16:44.290Z,62.68
2022-09-21T06:21:49.153Z,62.17
2022-09-21T06:26:52.583Z,60.85
2022-09-21T06:31:55.999Z,58.57
2022-09-21T06:37:00.909Z,58.59
2022-09-21T06:42:04.450Z,58.26
2022-09-21T06:47:07.985Z,58.02
2022-09-21T06:52:12.845Z,58.68
2022-09-21T06:57:16.225Z,59.20
2022-09-21T07:02:19.702Z,59.30
2022-09-21T07:07:24.598Z,56.63
2022-09-21T07:12:29.392Z,56.66
2022-09-21T07:17:34.065Z,56.16
2022-09-21T07:22:38.978Z,54.46
2022-09-21T07:27:42.799Z,54.81
2022-09-21T07:32:46.185Z,54.68
2022-09-21T07:37:51.145Z,54.71
2022-09-21T07:42:58.836Z,56.08
2022-09-21T07:48:04.369Z,56.36
2022-09-21T07:53:09.626Z,55.07
2022-09-21T07:58:30.555Z,54.12
2022-09-21T08:03:33.949Z,54.32
2022-09-21T08:08:39.635Z,53.42
2022-09-21T08:13:43.405Z,52.88
2022-09-21T08:18:46.838Z,51.98
2022-09-21T08:23:51.717Z,52.27
2022-09-21T08:28:58.955Z,51.46
2022-09-21T08:34:02.727Z,50.79
2022-09-21T08:39:10.430Z,49.91
2022-09-21T08:44:19.375Z,50.38
2022-09-21T08:49:26.490Z,50.06
2022-09-21T08:54:40.176Z,48.43
2022-09-21T08:59:47.526Z,48.39
2022-09-21T09:04:59.074Z,47.51
2022-09-21T09:10:14.200Z,46.21
2022-09-21T09:15:55.456Z,45.86
2022-09-21T09:21:02.101Z,46.42
2022-09-21T09:26:11.990Z,45.40
2022-09-21T09:31:22.052Z,43.29
2022-09-21T09:36:53.944Z,44.09
2022-09-21T09:42:08.317Z,44.20
2022-09-21T09:47:26.836Z,42.08
2022-09-21T09:52:30.752Z,43.79
2022-09-21T09:57:35.597Z,43.29
2022-09-21T10:02:49.505Z,43.22
2022-09-21T10:07:53.618Z,42.74
2022-09-21T10:13:06.728Z,44.08
2022-09-21T10:18:18.416Z,42.77
2022-09-21T10:23:22.428Z,43.32
2022-09-21T10:28:28.492Z,42.33
2022-09-21T10:33:32.053Z,42.22
2022-09-21T10:38:36.423Z,42.51
2022-09-21T10:43:44.628Z,43.89
2022-09-21T10:48:48.182Z,45.05
2022-09-21T10:53:53.891Z,44.75
2022-09-21T10:59:23.249Z,44.55
2022-09-21T11:04:34.334Z,45.10
2022-09-21T11:09:42.531Z,46.13
2022-09-21T11:14:55.809Z,46.41
2022-09-21T11:20:10.815Z,45.38
2022-09-21T11:25:28.781Z,46.00
2022-09-21T11:30:43.328Z,45.96
2022-09-21T11:36:00.792Z,45.70
2022-09-21T11:41:23.969Z,44.64
2022-09-21T11:46:37.538Z,44.90
2022-09-21T11:51:57.311Z,45.63
2022-09-21T11:57:10.329Z,44.72
2022-09-21T12:02:53.202Z,45.16
2022-09-21T12:08:19.739Z,46.05
2022-09-21T12:13:32.188Z,46.84
2022-09-21T12:18:45.429Z,46.47
2022-09-21T12:23:55.282Z,46.52
2022-09-21T12:29:03.907Z,49.45
2022-09-21T12:34:18.272Z,53.92
2022-09-21T12:39:26.488Z,57.10
2022-09-21T12:44:52.024Z,53.46
2022-09-21T12:50:03.621Z,54.82
2022-09-21T12:55:26.119Z,57.71
2022-09-21T13:00:36.292Z,59.96
2022-09-21T13:05:53.140Z,61.89
2022-09-21T13:11:04.912Z,63.70
2022-09-21T13:16:23.355Z,58.00
2022-09-21T13:21:31.140Z,56.80
2022-09-21T13:26:41.054Z,57.75
2022-09-21T13:31:57.991Z,60.86
2022-09-21T13:37:36.224Z,60.62
2022-09-21T13:42:48.235Z,59.39
2022-09-21T13:47:54.657Z,56.06
2022-09-21T13:53:03.444Z,58.69
2022-09-21T13:58:19.752Z,62.24
2022-09-21T14:03:27.586Z,66.13
2022-09-21T14:08:36.998Z,69.55
2022-09-21T14:13:44.501Z,69.82
2022-09-21T14:18:48.175Z,69.17
2022-09-21T14:24:21.189Z,65.32
2022-09-21T14:29:29.322Z,67.01
2022-09-21T14:34:37.611Z,67.38
2022-09-21T14:39:46.221Z,66.06
2022-09-21T14:44:51.879Z,68.69
2022-09-21T14:50:18.560Z,67.90
2022-09-21T14:55:34.199Z,68.78
2022-09-21T15:00:40.622Z,65.56
2022-09-21T15:05:47.724Z,65.06
2022-09-21T15:11:01.067Z,64.15
2022-09-21T15:16:20.310Z,67.96
2022-09-21T15:21:27.577Z,67.70
2022-09-21T15:26:35.492Z,66.90
2022-09-21T15:31:41.739Z,66.67
2022-09-21T15:36:45.716Z,67.72
2022-09-21T15:41:55.457Z,68.50
2022-09-21T15:47:00.393Z,68.33
2022-09-21T15:52:09.330Z,68.63
2022-09-21T15:57:36.795Z,69.00
2022-09-21T16:02:43.953Z,69.72
2022-09-21T16:07:47.786Z,70.91
2022-09-21T16:12:52.611Z,70.37
2022-09-21T16:18:01.501Z,71.20
2022-09-21T16:23:07.869Z,70.84
2022-09-21T16:28:40.940Z,70.79
2022-09-21T16:34:00.492Z,71.08
2022-09-21T16:39:06.454Z,71.26
2022-09-21T16:44:17.687Z,71.13
2022-09-21T16:49:26.856Z,71.45
2022-09-21T16:54:34.606Z,71.29
2022-09-21T16:59:37.996Z,70.33
2022-09-21T17:04:43.398Z,70.81
2022-09-21T17:09:48.298Z,71.28
2022-09-21T17:14:52.484Z,71.60
2022-09-21T17:19:57.678Z,71.62
2022-09-21T17:25:01.074Z,72.51
2022-09-21T17:30:13.323Z,72.59
2022-09-21T17:35:30.610Z,72.56
2022-09-21T17:40:35.356Z,72.66
2022-09-21T17:45:43.654Z,72.18
2022-09-21T17:50:49.460Z,72.41
2022-09-21T17:55:59.230Z,73.67
2022-09-21T18:01:10.789Z,73.41
2022-09-21T18:06:17.035Z,73.32
2022-09-21T18:11:40.845Z,73.68
2022-09-21T18:16:53.070Z,74.08
2022-09-21T18:22:04.657Z,73.44
2022-09-21T18:27:12.282Z,72.92
2022-09-21T18:32:29.909Z,73.57
2022-09-21T18:37:42.429Z,74.27
2022-09-21T18:42:54.359Z,73.18
2022-09-21T18:48:12.254Z,73.25
2022-09-21T18:53:24.718Z,73.80
2022-09-21T18:58:30.212Z,73.23
2022-09-21T19:03:34.581Z,74.08
2022-09-21T19:08:47.666Z,73.57
2022-09-21T19:14:01.732Z,73.30
2022-09-21T19:19:19.134Z,73.61
2022-09-21T19:24:30.667Z,72.98
2022-09-21T19:29:43.184Z,73.34
2022-09-21T19:34:47.702Z,73.69
2022-09-21T19:39:53.304Z,72.69
2022-09-21T19:45:10.117Z,72.75
2022-09-21T19:50:18.282Z,72.60
2022-09-21T19:55:42.284Z,72.94
2022-09-21T20:00:47.450Z,72.51
2022-09-21T20:05:59.213Z,73.18
2022-09-21T20:11:19.080Z,71.49
2022-09-21T20:16:39.079Z,71.88
2022-09-21T20:21:44.469Z,71.34
2022-09-21T20:26:52.297Z,70.89
2022-09-21T20:31:56.301Z,71.03
2022-09-21T20:36:59.660Z,71.39
2022-09-21T20:42:04.911Z,71.41
2022-09-21T20:47:09.941Z,72.21
2022-09-21T20:52:13.950Z,71.78
2022-09-21T20:57:20.156Z,71.48
2022-09-21T21:02:23.882Z,70.92
2022-09-21T21:07:30.537Z,70.18
2022-09-21T21:12:35.658Z,69.66
2022-09-21T21:17:39.491Z,69.72
2022-09-21T21:22:42.901Z,69.64
2022-09-21T21:27:48.093Z,69.42
2022-09-21T21:32:52.424Z,69.50
2022-09-21T21:37:55.768Z,69.55
2022-09-21T21:43:00.911Z,69.71
2022-09-21T21:48:04.426Z,69.58
2022-09-21T21:53:08.109Z,69.67
2022-09-21T21:58:12.884Z,70.15
2022-09-21T22:03:16.589Z,70.46
2022-09-21T22:08:20.849Z,71.02
2022-09-21T22:13:26.294Z,71.13
2022-09-21T22:18:29.806Z,71.92
2022-09-21T22:23:33.809Z,71.70
2022-09-21T22:28:40.139Z,71.90
2022-09-21T22:33:44.255Z,72.50
2022-09-21T22:38:49.589Z,72.09
2022-09-21T22:43:56.039Z,72.53
2022-09-21T22:49:00.678Z,72.48
2022-09-21T22:54:04.440Z,72.28
2022-09-21T22:59:09.310Z,71.89
2022-09-21T23:04:14.586Z,72.35
2022-09-21T23:09:20.263Z,72.46
2022-09-21T23:14:25.472Z,72.06
2022-09-21T23:19:28.880Z,72.79
2022-09-21T23:24:32.595Z,72.91
2022-09-21T23:29:37.976Z,73.05
2022-09-21T23:34:41.587Z,73.41
2022-09-21T23:39:45.016Z,74.27
2022-09-21T23:44:49.973Z,73.61
2022-09-21T23:49:53.665Z,73.58
2022-09-21T23:54:57.063Z,73.70
